Time;durP1;ratioP1;P1;durP2;ratioP2;P2;SDS_P1;SDS_P2;PMS_P1;PMS_P2;Temp;Humidity;BMP_temperature;BMP_pressure;BME280_temperature;BME280_humidity;BME280_pressure;Samples;Min_cycle;Max_cycle;Signal;HPM_P1;HPM_P2
2021/01/02 00:00:09;;;;;;;0.20;0.20;;;;;;;;;;5037640;28;20201;-74
2021/01/02 00:03:00;;;;;;;0.20;0.20;;;;;;;;;;5054617;28;20224;-74
2021/01/02 00:05:28;;;;;;;0.20;0.20;;;;;;;;;;4987475;28;20206;-73
2021/01/02 00:08:09;;;;;;;0.50;0.50;;;;;;;;;;5037300;28;20236;-73
2021/01/02 00:10:40;;;;;;;0.20;0.20;;;;;;;;;;5046311;28;20575;-72
2021/01/02 00:13:13;;;;;;;0.20;0.20;;;;;;;;;;5050161;28;20200;-72
2021/01/02 00:15:45;;;;;;;0.20;0.20;;;;;;;;;;5059904;28;20253;-73
2021/01/02 00:18:29;;;;;;;0.97;0.97;;;;;;;;;;5047957;28;20211;-74
2021/01/02 00:21:01;;;;;;;3.20;1.60;;;;;;;;;;5059656;28;20294;-73
2021/01/02 00:23:45;;;;;;;0.20;0.20;;;;;;;;;;5053393;28;20201;-73
2021/01/02 00:26:15;;;;;;;0.20;0.20;;;;;;;;;;5044562;28;20224;-73
2021/01/02 00:28:43;;;;;;;0.20;0.20;;;;;;;;;;5058315;28;20204;-73
2021/01/02 00:31:26;;;;;;;0.30;0.30;;;;;;;;;;5053534;28;20274;-73
2021/01/02 00:34:10;;;;;;;0.20;0.20;;;;;;;;;;5056066;28;20196;-73
2021/01/02 00:36:40;;;;;;;0.20;0.20;;;;;;;;;;5050649;28;20207;-72
2021/01/02 00:39:07;;;;;;;0.20;0.20;;;;;;;;;;5039851;28;20219;-72
2021/01/02 00:41:34;;;;;;;0.20;0.20;;;;;;;;;;5051813;28;20223;-73
2021/01/02 00:44:04;;;;;;;0.20;0.20;;;;;;;;;;5047641;28;20196;-73
2021/01/02 00:46:30;;;;;;;0.30;0.30;;;;;;;;;;5041140;28;20511;-73
2021/01/02 00:48:57;;;;;;;0.43;0.43;;;;;;;;;;5054729;28;20228;-72
2021/01/02 00:51:24;;;;;;;0.30;0.30;;;;;;;;;;5039869;28;20193;-73
2021/01/02 00:54:02;;;;;;;0.20;0.20;;;;;;;;;;5034715;28;20200;-73
2021/01/02 00:56:29;;;;;;;0.20;0.20;;;;;;;;;;5060895;28;20288;-73
2021/01/02 00:59:17;;;;;;;0.23;0.23;;;;;;;;;;5041041;28;20399;-73
2021/01/02 01:02:01;;;;;;;0.20;0.20;;;;;;;;;;5058910;28;20227;-73
2021/01/02 01:04:38;;;;;;;0.20;0.20;;;;;;;;;;5044422;28;20196;-73
2021/01/02 01:07:06;;;;;;;0.80;0.80;;;;;;;;;;5054897;28;20466;-73
2021/01/02 01:09:38;;;;;;;0.20;0.20;;;;;;;;;;5035826;28;20212;-73
2021/01/02 01:12:07;;;;;;;0.20;0.20;;;;;;;;;;5054017;28;20200;-73
2021/01/02 01:14:35;;;;;;;0.20;0.20;;;;;;;;;;5059887;28;20200;-73
2021/01/02 01:17:03;;;;;;;0.30;0.30;;;;;;;;;;5049966;28;20326;-72
2021/01/02 01:19:29;;;;;;;0.20;0.20;;;;;;;;;;5053913;28;20204;-73
2021/01/02 01:21:57;;;;;;;0.20;0.20;;;;;;;;;;5048104;28;20223;-73
2021/01/02 01:24:24;;;;;;;0.67;0.67;;;;;;;;;;5060025;28;20199;-73
2021/01/02 01:27:06;;;;;;;0.30;0.30;;;;;;;;;;5038176;28;20196;-73
2021/01/02 01:29:43;;;;;;;0.20;0.20;;;;;;;;;;5049881;28;20491;-73
2021/01/02 01:32:10;;;;;;;0.20;0.20;;;;;;;;;;5053208;28;20464;-73
2021/01/02 01:34:37;;;;;;;0.20;0.20;;;;;;;;;;5043061;28;20208;-74
2021/01/02 01:37:04;;;;;;;0.30;0.30;;;;;;;;;;5063775;28;20459;-73
2021/01/02 01:39:31;;;;;;;0.20;0.20;;;;;;;;;;5033366;28;20207;-73
2021/01/02 01:41:59;;;;;;;0.30;0.30;;;;;;;;;;5063462;28;20242;-72
2021/01/02 01:44:40;;;;;;;0.20;0.20;;;;;;;;;;5030210;28;20220;-73
2021/01/02 01:47:12;;;;;;;0.20;0.20;;;;;;;;;;5057660;28;20269;-73
2021/01/02 01:50:11;;;;;;;0.20;0.20;;;;;;;;;;5062643;28;20227;-73
2021/01/02 01:52:43;;;;;;;0.20;0.20;;;;;;;;;;5055005;28;20193;-72
2021/01/02 01:55:10;;;;;;;0.20;0.20;;;;;;;;;;5045921;28;20228;-73
2021/01/02 01:57:37;;;;;;;0.20;0.20;;;;;;;;;;5046726;28;20196;-73
2021/01/02 02:00:11;;;;;;;0.20;0.20;;;;;;;;;;5057466;28;20491;-73
2021/01/02 02:03:00;;;;;;;0.20;0.20;;;;;;;;;;5062251;28;20239;-73
2021/01/02 02:05:32;;;;;;;0.20;0.20;;;;;;;;;;5050756;28;20227;-73
2021/01/02 02:07:59;;;;;;;0.20;0.20;;;;;;;;;;5060543;28;20208;-73
2021/01/02 02:10:27;;;;;;;0.23;0.23;;;;;;;;;;5035856;28;20204;-73
2021/01/02 02:12:54;;;;;;;0.20;0.20;;;;;;;;;;5053041;28;20390;-73
2021/01/02 02:15:22;;;;;;;0.20;0.20;;;;;;;;;;5056335;28;20293;-73
2021/01/02 02:17:51;;;;;;;0.20;0.20;;;;;;;;;;5027335;28;20274;-72
2021/01/02 02:20:19;;;;;;;0.20;0.20;;;;;;;;;;5064169;28;20200;-72
2021/01/02 02:22:45;;;;;;;0.20;0.20;;;;;;;;;;5044855;28;20373;-72
2021/01/02 02:25:12;;;;;;;0.20;0.20;;;;;;;;;;5061816;28;20271;-73
2021/01/02 02:27:40;;;;;;;0.40;0.40;;;;;;;;;;5042378;28;20197;-73
2021/01/02 02:30:12;;;;;;;0.20;0.20;;;;;;;;;;5038629;28;20206;-73
2021/01/02 02:32:39;;;;;;;0.20;0.20;;;;;;;;;;5042589;28;20202;-73
2021/01/02 02:35:07;;;;;;;0.20;0.20;;;;;;;;;;5047404;28;20281;-73
2021/01/02 02:37:36;;;;;;;0.20;0.20;;;;;;;;;;5059130;28;20225;-73
2021/01/02 02:40:03;;;;;;;0.20;0.20;;;;;;;;;;5053764;28;20294;-73
2021/01/02 02:42:30;;;;;;;0.20;0.20;;;;;;;;;;5041837;28;20211;-73
2021/01/02 02:44:58;;;;;;;0.20;0.20;;;;;;;;;;5062447;28;20223;-72
2021/01/02 02:47:25;;;;;;;0.20;0.20;;;;;;;;;;5040857;28;20236;-72
2021/01/02 02:49:52;;;;;;;0.20;0.20;;;;;;;;;;5043047;28;20223;-73
2021/01/02 02:52:22;;;;;;;0.20;0.20;;;;;;;;;;5060863;28;20306;-73
2021/01/02 02:54:50;;;;;;;0.20;0.20;;;;;;;;;;5052022;28;20255;-72
2021/01/02 02:57:17;;;;;;;1.73;1.73;;;;;;;;;;5051423;28;20235;-72
2021/01/02 02:59:43;;;;;;;0.20;0.20;;;;;;;;;;5041921;28;20207;-73
2021/01/02 03:02:10;;;;;;;0.20;0.20;;;;;;;;;;5046033;28;20537;-73
2021/01/02 03:04:36;;;;;;;0.43;0.43;;;;;;;;;;5036943;28;20235;-73
2021/01/02 03:07:03;;;;;;;0.20;0.20;;;;;;;;;;5037324;28;20462;-72
2021/01/02 03:09:30;;;;;;;0.20;0.20;;;;;;;;;;5045929;28;20362;-74
2021/01/02 03:11:58;;;;;;;0.20;0.20;;;;;;;;;;5035880;28;20275;-72
2021/01/02 03:14:24;;;;;;;0.20;0.20;;;;;;;;;;5055859;28;20199;-73
2021/01/02 03:16:55;;;;;;;0.23;0.23;;;;;;;;;;5042493;28;20454;-73
2021/01/02 03:19:21;;;;;;;0.20;0.20;;;;;;;;;;5041135;28;20227;-72
2021/01/02 03:21:48;;;;;;;0.20;0.20;;;;;;;;;;5034691;28;20228;-73
2021/01/02 03:24:14;;;;;;;0.30;0.30;;;;;;;;;;5035514;28;20496;-72
2021/01/02 03:26:40;;;;;;;0.20;0.20;;;;;;;;;;5042694;28;20457;-73
2021/01/02 03:29:07;;;;;;;0.20;0.20;;;;;;;;;;5058753;28;20200;-72
2021/01/02 03:31:34;;;;;;;0.20;0.20;;;;;;;;;;5053679;28;20203;-72
2021/01/02 03:34:00;;;;;;;0.20;0.20;;;;;;;;;;5042024;28;20239;-72
2021/01/02 03:36:27;;;;;;;0.20;0.20;;;;;;;;;;5029531;28;20250;-73
2021/01/02 03:38:54;;;;;;;0.20;0.20;;;;;;;;;;5030847;28;20200;-72
2021/01/02 03:41:20;;;;;;;0.20;0.20;;;;;;;;;;5052787;28;20530;-72
2021/01/02 03:43:47;;;;;;;0.20;0.20;;;;;;;;;;5028114;28;20224;-72
2021/01/02 03:46:14;;;;;;;0.20;0.20;;;;;;;;;;5029796;28;20258;-72
2021/01/02 03:48:40;;;;;;;0.70;0.70;;;;;;;;;;5035881;28;20228;-73
2021/01/02 03:51:07;;;;;;;0.20;0.20;;;;;;;;;;5039544;28;20202;-73
2021/01/02 03:53:33;;;;;;;0.20;0.20;;;;;;;;;;5035104;28;20426;-73
2021/01/02 03:56:00;;;;;;;0.20;0.20;;;;;;;;;;5039176;28;20240;-73
2021/01/02 03:58:26;;;;;;;0.27;0.27;;;;;;;;;;5042097;28;20235;-73
2021/01/02 04:00:53;;;;;;;0.20;0.20;;;;;;;;;;5038802;28;20259;-73
2021/01/02 04:03:21;;;;;;;0.20;0.20;;;;;;;;;;5039213;28;20354;-73
2021/01/02 04:05:47;;;;;;;0.20;0.20;;;;;;;;;;5048022;28;20284;-73
2021/01/02 04:08:13;;;;;;;0.30;0.30;;;;;;;;;;5043066;28;20255;-73
2021/01/02 04:10:40;;;;;;;0.33;0.33;;;;;;;;;;5053647;28;20388;-73
2021/01/02 04:13:07;;;;;;;0.20;0.20;;;;;;;;;;5038347;28;20324;-73
2021/01/02 04:15:33;;;;;;;0.20;0.20;;;;;;;;;;5034921;28;20408;-73
2021/01/02 04:18:00;;;;;;;0.20;0.20;;;;;;;;;;5039837;28;20500;-73
2021/01/02 04:20:27;;;;;;;0.20;0.20;;;;;;;;;;5024948;28;20200;-73
2021/01/02 04:22:54;;;;;;;0.30;0.30;;;;;;;;;;5033447;28;20228;-73
2021/01/02 04:25:20;;;;;;;0.30;0.30;;;;;;;;;;5043254;28;20394;-72
2021/01/02 04:27:47;;;;;;;0.23;0.23;;;;;;;;;;5037517;28;20207;-73
2021/01/02 04:30:14;;;;;;;0.20;0.20;;;;;;;;;;5040706;28;20207;-73
2021/01/02 04:32:44;;;;;;;0.83;0.83;;;;;;;;;;5036518;28;20223;-72
2021/01/02 04:35:10;;;;;;;0.30;0.30;;;;;;;;;;5055447;28;20201;-72
2021/01/02 04:37:38;;;;;;;0.20;0.20;;;;;;;;;;5043729;28;20397;-73
2021/01/02 04:40:06;;;;;;;0.20;0.20;;;;;;;;;;5036157;28;20204;-73
2021/01/02 04:42:33;;;;;;;0.20;0.20;;;;;;;;;;5043959;28;20224;-73
2021/01/02 04:45:00;;;;;;;0.30;0.30;;;;;;;;;;5032690;28;20295;-73
2021/01/02 04:47:28;;;;;;;0.20;0.20;;;;;;;;;;5055438;28;20197;-73
2021/01/02 04:49:54;;;;;;;0.20;0.20;;;;;;;;;;5051151;28;20213;-73
2021/01/02 04:52:22;;;;;;;0.30;0.30;;;;;;;;;;5069195;28;20241;-73
2021/01/02 04:54:50;;;;;;;0.20;0.20;;;;;;;;;;5056678;28;20230;-73
2021/01/02 04:57:16;;;;;;;0.30;0.30;;;;;;;;;;5065212;28;20208;-73
2021/01/02 04:59:48;;;;;;;0.37;0.37;;;;;;;;;;5055156;28;20204;-73
2021/01/02 05:02:17;;;;;;;0.30;0.30;;;;;;;;;;5049481;28;20278;-73
2021/01/02 05:04:45;;;;;;;0.30;0.30;;;;;;;;;;5056378;28;20203;-73
2021/01/02 05:07:12;;;;;;;0.40;0.40;;;;;;;;;;5053997;28;20292;-73
2021/01/02 05:09:38;;;;;;;0.30;0.30;;;;;;;;;;5035099;28;20214;-73
2021/01/02 05:12:22;;;;;;;0.30;0.30;;;;;;;;;;5033900;28;20193;-74
2021/01/02 05:15:02;;;;;;;1.90;1.80;;;;;;;;;;5049354;28;20211;-74
2021/01/02 05:17:29;;;;;;;0.20;0.20;;;;;;;;;;5058827;28;20196;-74
2021/01/02 05:19:59;;;;;;;0.30;0.30;;;;;;;;;;5054415;28;20208;-74
2021/01/02 05:22:25;;;;;;;0.23;0.23;;;;;;;;;;5059779;28;20230;-74
2021/01/02 05:25:03;;;;;;;0.20;0.20;;;;;;;;;;5034224;28;20484;-74
2021/01/02 05:27:32;;;;;;;1.30;1.30;;;;;;;;;;5053122;28;20222;-74
2021/01/02 05:30:11;;;;;;;0.33;0.33;;;;;;;;;;5038894;28;20205;-74
2021/01/02 05:32:52;;;;;;;0.30;0.30;;;;;;;;;;5050276;28;20284;-74
2021/01/02 05:35:19;;;;;;;0.30;0.30;;;;;;;;;;5059460;28;20487;-74
2021/01/02 05:37:46;;;;;;;0.30;0.30;;;;;;;;;;5041263;28;20204;-74
2021/01/02 05:40:13;;;;;;;0.20;0.20;;;;;;;;;;5052905;28;20203;-74
2021/01/02 05:42:44;;;;;;;0.30;0.30;;;;;;;;;;5036369;28;20216;-74
2021/01/02 05:45:13;;;;;;;0.23;0.23;;;;;;;;;;5055101;28;20289;-73
2021/01/02 05:47:39;;;;;;;0.30;0.30;;;;;;;;;;5056819;28;20208;-74
2021/01/02 05:50:08;;;;;;;0.23;0.23;;;;;;;;;;5039485;28;20200;-74
2021/01/02 05:52:34;;;;;;;0.30;0.30;;;;;;;;;;5048782;28;20196;-74
2021/01/02 05:55:01;;;;;;;0.40;0.40;;;;;;;;;;5042390;28;20207;-74
2021/01/02 05:57:29;;;;;;;0.30;0.30;;;;;;;;;;5038508;28;20514;-73
2021/01/02 05:59:57;;;;;;;0.30;0.30;;;;;;;;;;5042598;28;20200;-74
2021/01/02 06:02:24;;;;;;;0.20;0.20;;;;;;;;;;5035158;28;20561;-74
2021/01/02 06:04:58;;;;;;;0.30;0.30;;;;;;;;;;5039124;28;20238;-73
2021/01/02 06:07:24;;;;;;;0.30;0.30;;;;;;;;;;5030708;28;20223;-74
2021/01/02 06:09:51;;;;;;;0.30;0.30;;;;;;;;;;5057153;28;20208;-74
2021/01/02 06:12:24;;;;;;;0.73;0.73;;;;;;;;;;5055789;28;20201;-74
2021/01/02 06:14:51;;;;;;;1.50;1.50;;;;;;;;;;5053517;28;20585;-73
2021/01/02 06:17:22;;;;;;;0.20;0.20;;;;;;;;;;5033933;28;20218;-73
2021/01/02 06:19:49;;;;;;;0.20;0.20;;;;;;;;;;5046797;28;20200;-74
2021/01/02 06:22:15;;;;;;;0.30;0.30;;;;;;;;;;5053756;28;20539;-74
2021/01/02 06:24:42;;;;;;;0.23;0.23;;;;;;;;;;5035406;28;20499;-74
2021/01/02 06:27:08;;;;;;;0.20;0.20;;;;;;;;;;5040979;28;20211;-74
2021/01/02 06:29:35;;;;;;;0.30;0.30;;;;;;;;;;5042741;28;20242;-74
2021/01/02 06:32:01;;;;;;;0.20;0.20;;;;;;;;;;5055693;28;21385;-74
2021/01/02 06:34:29;;;;;;;0.33;0.33;;;;;;;;;;5049530;28;20388;-73
2021/01/02 06:36:56;;;;;;;0.33;0.33;;;;;;;;;;5034528;28;20199;-73
2021/01/02 06:39:23;;;;;;;0.20;0.20;;;;;;;;;;5033732;28;20196;-73
2021/01/02 06:41:50;;;;;;;0.60;0.60;;;;;;;;;;5038706;28;20217;-74
2021/01/02 06:44:35;;;;;;;0.30;0.30;;;;;;;;;;5043712;28;20200;-74
2021/01/02 06:47:12;;;;;;;0.50;0.50;;;;;;;;;;5055529;28;20200;-73
2021/01/02 06:49:40;;;;;;;0.30;0.30;;;;;;;;;;5044270;28;20197;-73
2021/01/02 06:52:06;;;;;;;0.20;0.20;;;;;;;;;;5055353;28;20239;-74
2021/01/02 06:54:33;;;;;;;0.43;0.43;;;;;;;;;;5059810;28;20202;-74
2021/01/02 06:57:03;;;;;;;0.20;0.20;;;;;;;;;;5032959;28;20208;-74
2021/01/02 06:59:30;;;;;;;0.20;0.20;;;;;;;;;;5055089;28;20444;-74
2021/01/02 07:01:57;;;;;;;0.20;0.20;;;;;;;;;;5044979;28;20224;-74
2021/01/02 07:04:36;;;;;;;0.30;0.30;;;;;;;;;;5038860;28;20491;-73
2021/01/02 07:07:04;;;;;;;0.20;0.20;;;;;;;;;;5025472;28;20204;-74
2021/01/02 07:09:31;;;;;;;0.20;0.20;;;;;;;;;;5026863;28;20434;-74
2021/01/02 07:12:14;;;;;;;0.30;0.30;;;;;;;;;;5041106;28;20535;-74
2021/01/02 07:14:41;;;;;;;0.30;0.30;;;;;;;;;;5044274;28;20586;-74
2021/01/02 07:17:09;;;;;;;0.30;0.30;;;;;;;;;;5034922;28;20273;-74
2021/01/02 07:19:43;;;;;;;0.30;0.30;;;;;;;;;;5041685;28;20205;-74
2021/01/02 07:22:12;;;;;;;0.27;0.27;;;;;;;;;;5057599;28;20224;-74
2021/01/02 07:24:45;;;;;;;0.27;0.27;;;;;;;;;;5040272;28;20553;-74
2021/01/02 07:27:12;;;;;;;0.30;0.30;;;;;;;;;;5048748;28;20407;-74
2021/01/02 07:29:39;;;;;;;0.30;0.30;;;;;;;;;;5043758;28;20203;-74
2021/01/02 07:32:10;;;;;;;0.20;0.20;;;;;;;;;;5054082;28;20199;-74
2021/01/02 07:34:37;;;;;;;0.33;0.33;;;;;;;;;;5040773;28;20200;-74
2021/01/02 07:37:04;;;;;;;3.33;3.13;;;;;;;;;;5050357;28;20200;-74
2021/01/02 07:39:31;;;;;;;0.40;0.40;;;;;;;;;;5053026;28;20219;-73
2021/01/02 07:42:02;;;;;;;0.30;0.30;;;;;;;;;;5036453;28;20446;-74
2021/01/02 07:44:28;;;;;;;0.30;0.30;;;;;;;;;;5046558;28;20230;-74
2021/01/02 07:46:55;;;;;;;1.37;1.37;;;;;;;;;;5035157;28;20499;-74
2021/01/02 07:49:21;;;;;;;0.30;0.30;;;;;;;;;;5035382;28;20211;-74
2021/01/02 07:51:48;;;;;;;0.53;0.53;;;;;;;;;;5040560;28;20200;-74
2021/01/02 07:54:27;;;;;;;1.27;1.17;;;;;;;;;;5035525;28;20206;-74
2021/01/02 07:56:54;;;;;;;0.30;0.30;;;;;;;;;;5058111;28;20215;-74
2021/01/02 07:59:25;;;;;;;0.30;0.30;;;;;;;;;;5026588;28;20251;-74
2021/01/02 08:01:55;;;;;;;0.40;0.40;;;;;;;;;;5046622;28;20233;-73
2021/01/02 08:04:22;;;;;;;0.30;0.30;;;;;;;;;;5025426;28;20518;-74
2021/01/02 08:06:49;;;;;;;0.80;0.80;;;;;;;;;;5038103;28;20207;-74
2021/01/02 08:09:15;;;;;;;0.30;0.30;;;;;;;;;;5051821;28;20514;-74
2021/01/02 08:11:48;;;;;;;0.43;0.43;;;;;;;;;;5056401;28;20530;-74
2021/01/02 08:14:15;;;;;;;0.50;0.50;;;;;;;;;;5050771;28;20211;-73
2021/01/02 08:16:51;;;;;;;0.60;0.60;;;;;;;;;;5048234;28;20208;-74
2021/01/02 08:19:18;;;;;;;0.53;0.53;;;;;;;;;;5045478;28;20368;-74
2021/01/02 08:21:44;;;;;;;0.30;0.30;;;;;;;;;;5030157;28;20225;-74
2021/01/02 08:24:12;;;;;;;0.37;0.37;;;;;;;;;;5039443;28;20264;-74
2021/01/02 08:26:38;;;;;;;0.30;0.30;;;;;;;;;;5045486;28;20243;-73
2021/01/02 08:29:05;;;;;;;0.30;0.30;;;;;;;;;;5037490;28;20250;-73
2021/01/02 08:31:33;;;;;;;0.33;0.33;;;;;;;;;;5024994;28;20291;-74
2021/01/02 08:34:00;;;;;;;0.30;0.30;;;;;;;;;;5030418;28;20201;-74
2021/01/02 08:36:27;;;;;;;0.20;0.20;;;;;;;;;;5031907;28;20203;-74
2021/01/02 08:38:57;;;;;;;0.37;0.37;;;;;;;;;;5032081;28;20222;-74
2021/01/02 08:41:26;;;;;;;0.30;0.30;;;;;;;;;;5028868;28;20266;-74
2021/01/02 08:43:53;;;;;;;0.40;0.40;;;;;;;;;;5048376;28;20222;-73
2021/01/02 08:46:22;;;;;;;0.30;0.30;;;;;;;;;;5053437;28;20251;-74
2021/01/02 08:48:49;;;;;;;0.30;0.30;;;;;;;;;;5047248;28;20260;-74
2021/01/02 08:51:23;;;;;;;0.30;0.30;;;;;;;;;;5029481;28;20226;-73
2021/01/02 08:53:49;;;;;;;2.63;2.53;;;;;;;;;;5043143;28;20228;-72
2021/01/02 08:56:22;;;;;;;0.30;0.30;;;;;;;;;;5043456;28;20199;-69
2021/01/02 08:58:49;;;;;;;0.30;0.30;;;;;;;;;;5042709;28;20207;-72
2021/01/02 09:01:15;;;;;;;0.47;0.47;;;;;;;;;;5037172;28;20200;-72
2021/01/02 09:03:42;;;;;;;0.30;0.30;;;;;;;;;;5051054;28;20204;-71
2021/01/02 09:06:19;;;;;;;0.30;0.30;;;;;;;;;;5045339;28;20230;-73
2021/01/02 09:08:46;;;;;;;0.53;0.53;;;;;;;;;;5034058;28;20380;-72
2021/01/02 09:11:13;;;;;;;2.37;1.27;;;;;;;;;;5043687;28;20200;-73
2021/01/02 09:13:38;;;;;;;0.30;0.30;;;;;;;;;;5051964;28;20201;-73
2021/01/02 09:16:06;;;;;;;0.27;0.27;;;;;;;;;;5051969;28;20203;-72
2021/01/02 09:18:36;;;;;;;0.30;0.30;;;;;;;;;;5048680;28;20207;-72
2021/01/02 09:21:17;;;;;;;0.30;0.30;;;;;;;;;;5047410;28;20391;-73
2021/01/02 09:23:44;;;;;;;0.43;0.43;;;;;;;;;;5043361;28;20227;-73
2021/01/02 09:26:17;;;;;;;0.30;0.30;;;;;;;;;;5044707;28;20204;-72
2021/01/02 09:28:44;;;;;;;0.27;0.27;;;;;;;;;;5048226;28;20212;-72
2021/01/02 09:31:11;;;;;;;0.60;0.60;;;;;;;;;;5053067;28;20200;-70
2021/01/02 09:33:37;;;;;;;0.20;0.20;;;;;;;;;;5044456;28;20275;-74
2021/01/02 09:36:04;;;;;;;13.57;1.70;;;;;;;;;;5044436;28;20200;-73
2021/01/02 09:38:31;;;;;;;0.30;0.30;;;;;;;;;;5060078;28;20391;-70
2021/01/02 09:40:58;;;;;;;0.20;0.20;;;;;;;;;;5041503;28;20533;-73
2021/01/02 09:43:25;;;;;;;1.17;1.17;;;;;;;;;;5051138;28;20228;-73
2021/01/02 09:45:51;;;;;;;0.20;0.20;;;;;;;;;;5059044;28;20231;-73
2021/01/02 09:48:21;;;;;;;0.20;0.20;;;;;;;;;;5060109;28;20211;-71
2021/01/02 09:50:47;;;;;;;0.27;0.27;;;;;;;;;;5042681;28;20200;-70
2021/01/02 09:53:14;;;;;;;0.40;0.40;;;;;;;;;;5059654;28;20444;-69
2021/01/02 09:55:41;;;;;;;0.30;0.30;;;;;;;;;;5033032;28;20196;-71
2021/01/02 09:58:09;;;;;;;0.20;0.20;;;;;;;;;;5038515;28;20200;-70
2021/01/02 10:00:36;;;;;;;0.27;0.27;;;;;;;;;;5044124;28;20494;-72
2021/01/02 10:03:02;;;;;;;2.43;2.23;;;;;;;;;;5040042;28;20550;-73
2021/01/02 10:05:28;;;;;;;0.20;0.20;;;;;;;;;;5044969;28;20394;-69
2021/01/02 10:07:55;;;;;;;0.20;0.20;;;;;;;;;;5025798;28;20507;-73
2021/01/02 10:10:21;;;;;;;0.20;0.20;;;;;;;;;;5050026;28;20205;-73
2021/01/02 10:12:48;;;;;;;0.20;0.20;;;;;;;;;;5055025;28;20196;-74
2021/01/02 10:15:16;;;;;;;0.20;0.20;;;;;;;;;;5053893;28;20207;-73
2021/01/02 10:17:43;;;;;;;0.20;0.20;;;;;;;;;;5052417;28;20212;-73
2021/01/02 10:20:10;;;;;;;0.20;0.20;;;;;;;;;;5039114;28;20376;-71
2021/01/02 10:22:37;;;;;;;4.50;2.83;;;;;;;;;;5045675;28;20558;-73
2021/01/02 10:25:04;;;;;;;0.20;0.20;;;;;;;;;;5032462;28;20210;-73
2021/01/02 10:27:31;;;;;;;0.67;0.63;;;;;;;;;;5029030;28;20518;-75
2021/01/02 10:29:57;;;;;;;2.93;2.83;;;;;;;;;;5039862;28;20491;-72
2021/01/02 10:32:26;;;;;;;0.20;0.20;;;;;;;;;;5055411;28;20398;-70
2021/01/02 10:34:52;;;;;;;1.03;1.03;;;;;;;;;;5036176;28;20204;-70
2021/01/02 10:37:20;;;;;;;1.13;1.13;;;;;;;;;;5034666;28;20196;-69
2021/01/02 10:39:47;;;;;;;2.30;2.20;;;;;;;;;;5044145;28;20200;-71
2021/01/02 10:42:14;;;;;;;0.20;0.20;;;;;;;;;;5033973;28;20519;-70
2021/01/02 10:44:43;;;;;;;0.20;0.20;;;;;;;;;;5036629;28;20220;-70
2021/01/02 10:47:09;;;;;;;2.73;2.63;;;;;;;;;;5043379;28;20207;-69
2021/01/02 10:49:37;;;;;;;0.50;0.47;;;;;;;;;;5064614;28;20370;-71
2021/01/02 10:52:04;;;;;;;1.90;1.90;;;;;;;;;;5035938;28;20203;-70
2021/01/02 10:54:32;;;;;;;0.73;0.73;;;;;;;;;;5044490;28;20196;-73
2021/01/02 10:56:59;;;;;;;17.37;3.80;;;;;;;;;;5047278;28;20267;-72
2021/01/02 10:59:25;;;;;;;0.93;0.93;;;;;;;;;;5027902;28;20271;-73
2021/01/02 11:01:52;;;;;;;1.50;0.30;;;;;;;;;;5047929;28;20224;-74
2021/01/02 11:04:20;;;;;;;3.47;3.30;;;;;;;;;;5044498;28;20200;-73
2021/01/02 11:06:49;;;;;;;9.27;8.60;;;;;;;;;;5042113;28;20197;-72
2021/01/02 11:09:16;;;;;;;0.20;0.20;;;;;;;;;;5043388;28;20212;-72
2021/01/02 11:11:42;;;;;;;0.20;0.20;;;;;;;;;;5059499;28;20391;-72
2021/01/02 11:14:10;;;;;;;0.20;0.20;;;;;;;;;;5051081;28;20272;-72
2021/01/02 11:16:36;;;;;;;0.40;0.40;;;;;;;;;;5040772;28;20196;-73
2021/01/02 11:19:03;;;;;;;0.13;0.13;;;;;;;;;;5047307;28;20200;-72
2021/01/02 11:21:29;;;;;;;0.30;0.30;;;;;;;;;;5049679;28;20200;-72
2021/01/02 11:23:56;;;;;;;0.10;0.10;;;;;;;;;;5026211;28;20200;-74
2021/01/02 11:26:23;;;;;;;0.40;0.40;;;;;;;;;;5048774;28;20205;-73
2021/01/02 11:28:49;;;;;;;0.20;0.20;;;;;;;;;;5044051;28;20518;-73
2021/01/02 11:31:15;;;;;;;0.20;0.20;;;;;;;;;;5062756;28;20204;-72
2021/01/02 11:33:42;;;;;;;0.93;0.93;;;;;;;;;;5044125;28;20197;-71
2021/01/02 11:36:08;;;;;;;0.63;0.63;;;;;;;;;;5053349;28;20376;-72
2021/01/02 11:38:34;;;;;;;0.40;0.40;;;;;;;;;;5042099;28;20201;-72
2021/01/02 11:41:01;;;;;;;0.20;0.20;;;;;;;;;;5024058;28;20204;-72
2021/01/02 11:43:28;;;;;;;0.20;0.20;;;;;;;;;;5024873;28;20235;-72
2021/01/02 11:45:54;;;;;;;0.20;0.20;;;;;;;;;;5040918;28;20244;-73
2021/01/02 11:48:20;;;;;;;0.20;0.20;;;;;;;;;;5048334;28;20207;-73
2021/01/02 11:50:47;;;;;;;0.20;0.20;;;;;;;;;;5047277;28;20209;-72
2021/01/02 11:53:13;;;;;;;0.20;0.20;;;;;;;;;;5024023;28;20198;-73
2021/01/02 11:55:41;;;;;;;0.57;0.57;;;;;;;;;;5053294;28;20206;-73
2021/01/02 11:58:08;;;;;;;0.20;0.20;;;;;;;;;;5044448;28;20227;-72
2021/01/02 12:00:34;;;;;;;0.10;0.10;;;;;;;;;;5040325;28;20417;-73
2021/01/02 12:03:02;;;;;;;0.83;0.83;;;;;;;;;;5023676;28;20244;-71
2021/01/02 12:05:29;;;;;;;0.43;0.43;;;;;;;;;;5024462;28;20200;-71
2021/01/02 12:07:55;;;;;;;0.20;0.20;;;;;;;;;;5035388;28;20215;-71
2021/01/02 12:10:22;;;;;;;0.40;0.40;;;;;;;;;;5035337;28;20367;-70
2021/01/02 12:12:49;;;;;;;0.20;0.20;;;;;;;;;;5033064;28;20278;-70
2021/01/02 12:15:16;;;;;;;0.20;0.20;;;;;;;;;;5024160;28;20201;-70
2021/01/02 12:17:42;;;;;;;0.20;0.20;;;;;;;;;;5042058;28;20488;-70
2021/01/02 12:20:08;;;;;;;0.20;0.20;;;;;;;;;;5057506;28;20217;-72
2021/01/02 12:22:36;;;;;;;0.30;0.30;;;;;;;;;;5039875;28;20221;-71
2021/01/02 12:25:04;;;;;;;0.20;0.20;;;;;;;;;;5028214;28;20219;-70
2021/01/02 12:27:31;;;;;;;0.20;0.20;;;;;;;;;;5053402;28;20471;-72
2021/01/02 12:29:57;;;;;;;0.20;0.20;;;;;;;;;;5033569;28;20512;-71
2021/01/02 12:32:27;;;;;;;0.20;0.20;;;;;;;;;;5031272;28;20228;-70
2021/01/02 12:34:54;;;;;;;0.63;0.63;;;;;;;;;;5049318;28;20276;-71
2021/01/02 12:37:20;;;;;;;0.20;0.20;;;;;;;;;;5054033;28;20206;-70
2021/01/02 12:39:47;;;;;;;0.57;0.57;;;;;;;;;;5032776;28;20235;-68
2021/01/02 12:42:13;;;;;;;0.30;0.30;;;;;;;;;;5054435;28;20244;-71
2021/01/02 12:44:39;;;;;;;0.20;0.20;;;;;;;;;;5033069;28;20221;-71
2021/01/02 12:47:07;;;;;;;0.73;0.73;;;;;;;;;;5050293;28;20246;-70
2021/01/02 12:49:35;;;;;;;0.20;0.20;;;;;;;;;;5042288;28;20432;-71
2021/01/02 12:52:02;;;;;;;0.30;0.30;;;;;;;;;;5028256;28;20200;-71
2021/01/02 12:54:27;;;;;;;0.20;0.20;;;;;;;;;;5047849;28;20504;-69
2021/01/02 12:56:55;;;;;;;0.20;0.20;;;;;;;;;;5050873;28;20272;-70
2021/01/02 12:59:22;;;;;;;0.20;0.20;;;;;;;;;;5034891;28;20248;-71
2021/01/02 13:01:48;;;;;;;0.20;0.20;;;;;;;;;;5053429;28;20270;-70
2021/01/02 13:04:15;;;;;;;0.40;0.40;;;;;;;;;;5051815;28;20203;-69
2021/01/02 13:06:42;;;;;;;0.30;0.30;;;;;;;;;;5048910;28;20201;-69
2021/01/02 13:09:10;;;;;;;0.20;0.20;;;;;;;;;;5032975;28;20216;-70
2021/01/02 13:11:36;;;;;;;0.30;0.30;;;;;;;;;;5051160;28;20214;-71
2021/01/02 13:14:03;;;;;;;0.20;0.20;;;;;;;;;;5024121;28;20240;-70
2021/01/02 13:16:29;;;;;;;0.20;0.20;;;;;;;;;;5036522;28;20263;-70
2021/01/02 13:18:55;;;;;;;0.30;0.30;;;;;;;;;;5048642;28;20198;-71
2021/01/02 13:21:22;;;;;;;0.20;0.20;;;;;;;;;;5033583;28;20355;-74
2021/01/02 13:23:49;;;;;;;0.10;0.10;;;;;;;;;;5052251;28;20547;-70
2021/01/02 13:26:15;;;;;;;3.23;3.03;;;;;;;;;;5031858;28;20198;-71
2021/01/02 13:28:42;;;;;;;2.47;2.37;;;;;;;;;;5050539;28;20573;-71
2021/01/02 13:31:08;;;;;;;0.20;0.20;;;;;;;;;;5061317;28;20204;-70
2021/01/02 13:33:35;;;;;;;0.20;0.20;;;;;;;;;;5061192;28;20443;-70
2021/01/02 13:36:01;;;;;;;0.20;0.20;;;;;;;;;;5041537;28;20224;-70
2021/01/02 13:38:28;;;;;;;0.20;0.20;;;;;;;;;;5059701;28;20232;-70
2021/01/02 13:40:56;;;;;;;0.20;0.20;;;;;;;;;;5044818;28;20204;-69
2021/01/02 13:43:22;;;;;;;0.20;0.20;;;;;;;;;;5045904;28;20217;-69
2021/01/02 13:45:49;;;;;;;4.77;4.50;;;;;;;;;;5044164;28;20561;-70
2021/01/02 13:48:15;;;;;;;0.20;0.20;;;;;;;;;;5057185;28;20197;-70
2021/01/02 13:50:41;;;;;;;0.20;0.20;;;;;;;;;;5053792;28;20201;-69
2021/01/02 13:53:07;;;;;;;0.70;0.70;;;;;;;;;;5032590;28;20220;-70
2021/01/02 13:55:34;;;;;;;0.20;0.20;;;;;;;;;;5037246;28;20214;-70
2021/01/02 13:58:01;;;;;;;0.30;0.30;;;;;;;;;;5060149;28;20202;-71
2021/01/02 14:00:28;;;;;;;0.20;0.20;;;;;;;;;;5044440;28;20487;-70
2021/01/02 14:02:55;;;;;;;6.83;6.27;;;;;;;;;;5047520;28;20331;-72
2021/01/02 14:05:21;;;;;;;0.20;0.20;;;;;;;;;;5042125;28;20223;-70
2021/01/02 14:08:00;;;;;;;0.30;0.30;;;;;;;;;;5059184;28;20415;-69
2021/01/02 14:10:27;;;;;;;0.40;0.40;;;;;;;;;;5055090;28;20206;-73
2021/01/02 14:12:55;;;;;;;0.20;0.20;;;;;;;;;;5053334;28;20203;-69
2021/01/02 14:15:31;;;;;;;0.20;0.20;;;;;;;;;;5058493;28;20538;-71
2021/01/02 14:17:58;;;;;;;0.20;0.20;;;;;;;;;;5054661;28;20207;-72
2021/01/02 14:20:27;;;;;;;0.20;0.20;;;;;;;;;;5040290;28;20196;-70
2021/01/02 14:22:54;;;;;;;1.27;1.27;;;;;;;;;;5041935;28;20224;-72
2021/01/02 14:25:20;;;;;;;1.47;1.47;;;;;;;;;;5039783;28;20255;-70
2021/01/02 14:27:48;;;;;;;0.20;0.20;;;;;;;;;;5060525;28;20218;-70
2021/01/02 14:30:15;;;;;;;0.20;0.20;;;;;;;;;;5053851;28;20489;-69
2021/01/02 14:32:43;;;;;;;1.33;1.33;;;;;;;;;;5041238;28;20212;-68
2021/01/02 14:35:10;;;;;;;0.20;0.20;;;;;;;;;;5036419;28;20248;-68
2021/01/02 14:37:37;;;;;;;0.20;0.20;;;;;;;;;;5044052;28;20212;-71
2021/01/02 14:40:03;;;;;;;0.27;0.27;;;;;;;;;;5057552;28;20572;-70
2021/01/02 14:42:31;;;;;;;0.30;0.30;;;;;;;;;;5056117;28;20220;-68
2021/01/02 14:44:56;;;;;;;0.20;0.20;;;;;;;;;;5060548;28;20224;-69
2021/01/02 14:47:25;;;;;;;0.20;0.20;;;;;;;;;;5059520;28;20484;-68
2021/01/02 14:49:52;;;;;;;0.40;0.40;;;;;;;;;;5054716;28;20494;-69